sensor_id;sensor_type;location;lat;lon;timestamp;P1;durP1;ratioP1;P2;durP2;ratioP2
16179;SDS011;8196;49.428;10.906;2022-08-21T00:00:22;4.40;;;4.00;;
16179;SDS011;8196;49.428;10.906;2022-08-21T00:02:51;8.20;;;4.68;;
16179;SDS011;8196;49.428;10.906;2022-08-21T00:05:21;4.30;;;3.97;;
16179;SDS011;8196;49.428;10.906;2022-08-21T00:07:49;4.20;;;3.80;;
16179;SDS011;8196;49.428;10.906;2022-08-21T00:10:16;4.63;;;4.22;;
16179;SDS011;8196;49.428;10.906;2022-08-21T00:12:43;5.80;;;5.03;;
16179;SDS011;8196;49.428;10.906;2022-08-21T00:15:12;5.30;;;4.80;;
16179;SDS011;8196;49.428;10.906;2022-08-21T00:17:41;7.00;;;4.60;;
16179;SDS011;8196;49.428;10.906;2022-08-21T00:20:08;6.53;;;4.57;;
16179;SDS011;8196;49.428;10.906;2022-08-21T00:22:36;4.45;;;4.05;;
16179;SDS011;8196;49.428;10.906;2022-08-21T00:25:04;5.25;;;4.47;;
16179;SDS011;8196;49.428;10.906;2022-08-21T00:27:32;9.73;;;5.18;;
16179;SDS011;8196;49.428;10.906;2022-08-21T00:29:59;6.78;;;5.72;;
16179;SDS011;8196;49.428;10.906;2022-08-21T00:32:27;5.35;;;4.85;;
16179;SDS011;8196;49.428;10.906;2022-08-21T00:34:54;4.60;;;4.20;;
16179;SDS011;8196;49.428;10.906;2022-08-21T00:37:21;5.90;;;4.68;;
16179;SDS011;8196;49.428;10.906;2022-08-21T00:39:48;7.00;;;4.75;;
16179;SDS011;8196;49.428;10.906;2022-08-21T00:42:16;5.20;;;4.70;;
16179;SDS011;8196;49.428;10.906;2022-08-21T00:44:44;5.20;;;4.70;;
16179;SDS011;8196;49.428;10.906;2022-08-21T00:47:11;5.70;;;5.15;;
16179;SDS011;8196;49.428;10.906;2022-08-21T00:49:39;6.72;;;5.63;;
16179;SDS011;8196;49.428;10.906;2022-08-21T00:52:10;5.40;;;4.90;;
16179;SDS011;8196;49.428;10.906;2022-08-21T00:54:39;6.05;;;5.05;;
16179;SDS011;8196;49.428;10.906;2022-08-21T00:57:14;7.07;;;6.22;;
16179;SDS011;8196;49.428;10.906;2022-08-21T00:59:43;6.53;;;5.28;;
16179;SDS011;8196;49.428;10.906;2022-08-21T01:02:12;6.63;;;5.20;;
16179;SDS011;8196;49.428;10.906;2022-08-21T01:04:39;6.07;;;5.47;;
16179;SDS011;8196;49.428;10.906;2022-08-21T01:07:06;6.93;;;5.70;;
16179;SDS011;8196;49.428;10.906;2022-08-21T01:09:33;10.13;;;5.95;;
16179;SDS011;8196;49.428;10.906;2022-08-21T01:12:01;7.45;;;5.40;;
16179;SDS011;8196;49.428;10.906;2022-08-21T01:14:29;6.13;;;4.95;;
16179;SDS011;8196;49.428;10.906;2022-08-21T01:16:56;5.25;;;4.70;;
16179;SDS011;8196;49.428;10.906;2022-08-21T01:19:25;6.57;;;5.32;;
16179;SDS011;8196;49.428;10.906;2022-08-21T01:21:53;7.93;;;5.50;;
16179;SDS011;8196;49.428;10.906;2022-08-21T01:24:21;9.10;;;5.97;;
16179;SDS011;8196;49.428;10.906;2022-08-21T01:26:49;8.38;;;5.55;;
16179;SDS011;8196;49.428;10.906;2022-08-21T01:29:20;6.82;;;6.10;;
16179;SDS011;8196;49.428;10.906;2022-08-21T01:31:49;7.07;;;5.78;;
16179;SDS011;8196;49.428;10.906;2022-08-21T01:34:17;8.18;;;5.57;;
16179;SDS011;8196;49.428;10.906;2022-08-21T01:36:45;6.43;;;5.60;;
16179;SDS011;8196;49.428;10.906;2022-08-21T01:39:13;5.90;;;5.30;;
16179;SDS011;8196;49.428;10.906;2022-08-21T01:41:41;5.57;;;5.07;;
16179;SDS011;8196;49.428;10.906;2022-08-21T01:44:08;7.20;;;5.57;;
16179;SDS011;8196;49.428;10.906;2022-08-21T01:46:35;6.63;;;5.70;;
16179;SDS011;8196;49.428;10.906;2022-08-21T01:49:03;6.68;;;5.43;;
16179;SDS011;8196;49.428;10.906;2022-08-21T01:51:31;7.30;;;5.50;;
16179;SDS011;8196;49.428;10.906;2022-08-21T01:53:58;5.70;;;5.10;;
16179;SDS011;8196;49.428;10.906;2022-08-21T01:56:25;7.38;;;5.63;;
16179;SDS011;8196;49.428;10.906;2022-08-21T01:58:54;6.95;;;5.38;;
16179;SDS011;8196;49.428;10.906;2022-08-21T02:01:21;6.10;;;5.25;;
16179;SDS011;8196;49.428;10.906;2022-08-21T02:03:48;6.47;;;5.30;;
16179;SDS011;8196;49.428;10.906;2022-08-21T02:06:15;6.32;;;5.03;;
16179;SDS011;8196;49.428;10.906;2022-08-21T02:08:44;7.20;;;5.25;;
16179;SDS011;8196;49.428;10.906;2022-08-21T02:11:11;5.82;;;5.22;;
16179;SDS011;8196;49.428;10.906;2022-08-21T02:13:39;8.15;;;6.90;;
16179;SDS011;8196;49.428;10.906;2022-08-21T02:16:06;6.65;;;5.75;;
16179;SDS011;8196;49.428;10.906;2022-08-21T02:18:34;6.22;;;5.60;;
16179;SDS011;8196;49.428;10.906;2022-08-21T02:21:01;6.28;;;5.68;;
16179;SDS011;8196;49.428;10.906;2022-08-21T02:23:28;5.75;;;5.25;;
16179;SDS011;8196;49.428;10.906;2022-08-21T02:26:00;5.95;;;5.30;;
16179;SDS011;8196;49.428;10.906;2022-08-21T02:28:29;9.88;;;5.97;;
16179;SDS011;8196;49.428;10.906;2022-08-21T02:30:56;8.05;;;7.25;;
16179;SDS011;8196;49.428;10.906;2022-08-21T02:33:24;8.68;;;6.55;;
16179;SDS011;8196;49.428;10.906;2022-08-21T02:35:52;6.57;;;5.95;;
16179;SDS011;8196;49.428;10.906;2022-08-21T02:38:22;8.23;;;6.80;;
16179;SDS011;8196;49.428;10.906;2022-08-21T02:40:50;8.25;;;7.10;;
16179;SDS011;8196;49.428;10.906;2022-08-21T02:43:17;6.78;;;6.10;;
16179;SDS011;8196;49.428;10.906;2022-08-21T02:45:45;8.93;;;6.90;;
16179;SDS011;8196;49.428;10.906;2022-08-21T02:48:14;10.05;;;7.55;;
16179;SDS011;8196;49.428;10.906;2022-08-21T02:50:43;8.32;;;7.25;;
16179;SDS011;8196;49.428;10.906;2022-08-21T02:53:11;10.57;;;8.18;;
16179;SDS011;8196;49.428;10.906;2022-08-21T02:55:44;7.88;;;6.80;;
16179;SDS011;8196;49.428;10.906;2022-08-21T02:58:12;7.72;;;6.63;;
16179;SDS011;8196;49.428;10.906;2022-08-21T03:00:40;7.43;;;6.70;;
16179;SDS011;8196;49.428;10.906;2022-08-21T03:03:08;10.18;;;6.60;;
16179;SDS011;8196;49.428;10.906;2022-08-21T03:05:36;9.82;;;6.43;;
16179;SDS011;8196;49.428;10.906;2022-08-21T03:08:04;8.68;;;6.90;;
16179;SDS011;8196;49.428;10.906;2022-08-21T03:10:33;12.93;;;8.15;;
16179;SDS011;8196;49.428;10.906;2022-08-21T03:13:00;8.65;;;6.68;;
16179;SDS011;8196;49.428;10.906;2022-08-21T03:15:29;9.77;;;6.10;;
16179;SDS011;8196;49.428;10.906;2022-08-21T03:17:56;8.60;;;6.50;;
16179;SDS011;8196;49.428;10.906;2022-08-21T03:20:25;10.00;;;7.00;;
16179;SDS011;8196;49.428;10.906;2022-08-21T03:22:53;9.52;;;7.30;;
16179;SDS011;8196;49.428;10.906;2022-08-21T03:25:22;7.65;;;6.95;;
16179;SDS011;8196;49.428;10.906;2022-08-21T03:28:06;8.82;;;6.75;;
16179;SDS011;8196;49.428;10.906;2022-08-21T03:30:38;11.65;;;8.00;;
16179;SDS011;8196;49.428;10.906;2022-08-21T03:33:05;10.25;;;7.95;;
16179;SDS011;8196;49.428;10.906;2022-08-21T03:35:32;8.65;;;7.25;;
16179;SDS011;8196;49.428;10.906;2022-08-21T03:38:00;8.57;;;7.35;;
16179;SDS011;8196;49.428;10.906;2022-08-21T03:40:27;8.80;;;7.90;;
16179;SDS011;8196;49.428;10.906;2022-08-21T03:42:54;11.15;;;8.57;;
16179;SDS011;8196;49.428;10.906;2022-08-21T03:45:21;12.07;;;8.57;;
16179;SDS011;8196;49.428;10.906;2022-08-21T03:47:53;10.70;;;8.70;;
16179;SDS011;8196;49.428;10.906;2022-08-21T03:50:22;9.68;;;7.85;;
16179;SDS011;8196;49.428;10.906;2022-08-21T03:52:49;9.88;;;7.53;;
16179;SDS011;8196;49.428;10.906;2022-08-21T03:55:17;13.13;;;7.28;;
16179;SDS011;8196;49.428;10.906;2022-08-21T03:57:44;10.25;;;6.68;;
16179;SDS011;8196;49.428;10.906;2022-08-21T04:00:12;7.75;;;6.63;;
16179;SDS011;8196;49.428;10.906;2022-08-21T04:02:40;7.78;;;6.05;;
16179;SDS011;8196;49.428;10.906;2022-08-21T04:05:07;9.77;;;6.88;;
16179;SDS011;8196;49.428;10.906;2022-08-21T04:07:34;13.95;;;7.25;;
16179;SDS011;8196;49.428;10.906;2022-08-21T04:10:03;10.68;;;6.43;;
16179;SDS011;8196;49.428;10.906;2022-08-21T04:12:30;11.43;;;6.82;;
16179;SDS011;8196;49.428;10.906;2022-08-21T04:14:58;7.80;;;7.00;;
16179;SDS011;8196;49.428;10.906;2022-08-21T04:17:25;9.95;;;7.45;;
16179;SDS011;8196;49.428;10.906;2022-08-21T04:19:53;9.32;;;7.60;;
16179;SDS011;8196;49.428;10.906;2022-08-21T04:22:20;9.05;;;7.43;;
16179;SDS011;8196;49.428;10.906;2022-08-21T04:24:47;11.07;;;8.25;;
16179;SDS011;8196;49.428;10.906;2022-08-21T04:27:14;10.18;;;7.75;;
16179;SDS011;8196;49.428;10.906;2022-08-21T04:29:41;11.27;;;8.35;;
16179;SDS011;8196;49.428;10.906;2022-08-21T04:32:08;8.93;;;7.95;;
16179;SDS011;8196;49.428;10.906;2022-08-21T04:34:35;8.40;;;7.32;;
16179;SDS011;8196;49.428;10.906;2022-08-21T04:37:03;9.05;;;7.47;;
16179;SDS011;8196;49.428;10.906;2022-08-21T04:39:30;8.80;;;7.25;;
16179;SDS011;8196;49.428;10.906;2022-08-21T04:41:57;7.18;;;6.57;;
16179;SDS011;8196;49.428;10.906;2022-08-21T04:44:24;7.90;;;5.95;;
16179;SDS011;8196;49.428;10.906;2022-08-21T04:46:51;10.13;;;6.28;;
16179;SDS011;8196;49.428;10.906;2022-08-21T04:49:19;8.05;;;5.95;;
16179;SDS011;8196;49.428;10.906;2022-08-21T04:52:01;7.55;;;6.85;;
16179;SDS011;8196;49.428;10.906;2022-08-21T04:54:29;7.22;;;6.53;;
16179;SDS011;8196;49.428;10.906;2022-08-21T04:56:59;10.40;;;6.43;;
16179;SDS011;8196;49.428;10.906;2022-08-21T04:59:31;9.07;;;7.00;;
16179;SDS011;8196;49.428;10.906;2022-08-21T05:01:59;8.63;;;6.53;;
16179;SDS011;8196;49.428;10.906;2022-08-21T05:04:27;6.30;;;5.70;;
16179;SDS011;8196;49.428;10.906;2022-08-21T05:06:57;9.80;;;6.55;;
16179;SDS011;8196;49.428;10.906;2022-08-21T05:09:24;11.70;;;8.07;;
16179;SDS011;8196;49.428;10.906;2022-08-21T05:11:52;10.02;;;7.65;;
16179;SDS011;8196;49.428;10.906;2022-08-21T05:14:19;9.15;;;8.00;;
16179;SDS011;8196;49.428;10.906;2022-08-21T05:16:46;11.82;;;9.20;;
16179;SDS011;8196;49.428;10.906;2022-08-21T05:19:13;11.63;;;8.98;;
16179;SDS011;8196;49.428;10.906;2022-08-21T05:21:42;11.98;;;8.95;;
16179;SDS011;8196;49.428;10.906;2022-08-21T05:24:09;11.27;;;9.10;;
16179;SDS011;8196;49.428;10.906;2022-08-21T05:26:37;13.48;;;10.32;;
16179;SDS011;8196;49.428;10.906;2022-08-21T05:29:12;12.15;;;8.57;;
16179;SDS011;8196;49.428;10.906;2022-08-21T05:31:40;10.48;;;9.18;;
16179;SDS011;8196;49.428;10.906;2022-08-21T05:34:07;10.25;;;9.25;;
16179;SDS011;8196;49.428;10.906;2022-08-21T05:36:35;9.73;;;8.73;;
16179;SDS011;8196;49.428;10.906;2022-08-21T05:39:02;10.18;;;9.18;;
16179;SDS011;8196;49.428;10.906;2022-08-21T05:41:30;10.18;;;9.00;;
16179;SDS011;8196;49.428;10.906;2022-08-21T05:43:59;10.05;;;9.05;;
16179;SDS011;8196;49.428;10.906;2022-08-21T05:46:26;11.05;;;10.02;;
16179;SDS011;8196;49.428;10.906;2022-08-21T05:48:53;10.07;;;9.15;;
16179;SDS011;8196;49.428;10.906;2022-08-21T05:51:20;9.38;;;8.57;;
16179;SDS011;8196;49.428;10.906;2022-08-21T05:53:48;11.02;;;10.02;;
16179;SDS011;8196;49.428;10.906;2022-08-21T05:56:15;10.38;;;9.43;;
16179;SDS011;8196;49.428;10.906;2022-08-21T05:58:43;11.23;;;9.70;;
16179;SDS011;8196;49.428;10.906;2022-08-21T06:01:10;10.10;;;9.18;;
16179;SDS011;8196;49.428;10.906;2022-08-21T06:03:38;9.98;;;9.07;;
16179;SDS011;8196;49.428;10.906;2022-08-21T06:06:06;10.15;;;9.15;;
16179;SDS011;8196;49.428;10.906;2022-08-21T06:08:33;9.73;;;8.77;;
16179;SDS011;8196;49.428;10.906;2022-08-21T06:11:01;10.40;;;9.40;;
16179;SDS011;8196;49.428;10.906;2022-08-21T06:13:28;10.20;;;9.30;;
16179;SDS011;8196;49.428;10.906;2022-08-21T06:16:12;10.05;;;9.15;;
16179;SDS011;8196;49.428;10.906;2022-08-21T06:18:42;10.00;;;9.02;;
16179;SDS011;8196;49.428;10.906;2022-08-21T06:21:09;10.43;;;9.43;;
16179;SDS011;8196;49.428;10.906;2022-08-21T06:23:37;9.85;;;8.95;;
16179;SDS011;8196;49.428;10.906;2022-08-21T06:26:05;9.70;;;8.80;;
16179;SDS011;8196;49.428;10.906;2022-08-21T06:28:33;10.90;;;9.90;;
16179;SDS011;8196;49.428;10.906;2022-08-21T06:31:00;10.23;;;9.32;;
16179;SDS011;8196;49.428;10.906;2022-08-21T06:33:27;11.07;;;9.98;;
16179;SDS011;8196;49.428;10.906;2022-08-21T06:35:58;9.35;;;8.55;;
16179;SDS011;8196;49.428;10.906;2022-08-21T06:38:26;11.05;;;10.05;;
16179;SDS011;8196;49.428;10.906;2022-08-21T06:40:54;9.07;;;8.27;;
16179;SDS011;8196;49.428;10.906;2022-08-21T06:43:23;8.65;;;7.85;;
16179;SDS011;8196;49.428;10.906;2022-08-21T06:46:05;8.57;;;7.88;;
16179;SDS011;8196;49.428;10.906;2022-08-21T06:48:33;9.05;;;8.25;;
16179;SDS011;8196;49.428;10.906;2022-08-21T06:51:00;8.57;;;7.80;;
16179;SDS011;8196;49.428;10.906;2022-08-21T06:53:27;8.60;;;7.85;;
16179;SDS011;8196;49.428;10.906;2022-08-21T06:55:54;8.63;;;7.82;;
16179;SDS011;8196;49.428;10.906;2022-08-21T06:58:21;8.80;;;8.02;;
16179;SDS011;8196;49.428;10.906;2022-08-21T07:00:49;8.38;;;7.68;;
16179;SDS011;8196;49.428;10.906;2022-08-21T07:03:18;8.52;;;7.72;;
16179;SDS011;8196;49.428;10.906;2022-08-21T07:05:45;7.80;;;7.00;;
16179;SDS011;8196;49.428;10.906;2022-08-21T07:08:13;8.20;;;7.50;;
16179;SDS011;8196;49.428;10.906;2022-08-21T07:10:40;8.32;;;7.63;;
16179;SDS011;8196;49.428;10.906;2022-08-21T07:13:07;8.77;;;7.93;;
16179;SDS011;8196;49.428;10.906;2022-08-21T07:15:34;7.47;;;6.80;;
16179;SDS011;8196;49.428;10.906;2022-08-21T07:18:01;8.52;;;7.72;;
16179;SDS011;8196;49.428;10.906;2022-08-21T07:20:29;10.02;;;9.13;;
16179;SDS011;8196;49.428;10.906;2022-08-21T07:22:58;8.48;;;7.78;;
16179;SDS011;8196;49.428;10.906;2022-08-21T07:25:26;9.63;;;8.63;;
16179;SDS011;8196;49.428;10.906;2022-08-21T07:27:53;8.82;;;8.00;;
16179;SDS011;8196;49.428;10.906;2022-08-21T07:30:20;8.68;;;7.88;;
16179;SDS011;8196;49.428;10.906;2022-08-21T07:32:48;7.93;;;7.22;;
16179;SDS011;8196;49.428;10.906;2022-08-21T07:35:16;8.40;;;7.60;;
16179;SDS011;8196;49.428;10.906;2022-08-21T07:37:43;8.57;;;7.60;;
16179;SDS011;8196;49.428;10.906;2022-08-21T07:40:10;7.85;;;7.15;;
16179;SDS011;8196;49.428;10.906;2022-08-21T07:42:40;8.57;;;7.78;;
16179;SDS011;8196;49.428;10.906;2022-08-21T07:45:08;8.55;;;7.75;;
16179;SDS011;8196;49.428;10.906;2022-08-21T07:47:35;8.70;;;7.85;;
16179;SDS011;8196;49.428;10.906;2022-08-21T07:50:08;8.13;;;7.32;;
16179;SDS011;8196;49.428;10.906;2022-08-21T07:52:35;9.52;;;8.63;;
16179;SDS011;8196;49.428;10.906;2022-08-21T07:55:03;8.38;;;7.57;;
16179;SDS011;8196;49.428;10.906;2022-08-21T07:57:32;8.05;;;7.35;;
16179;SDS011;8196;49.428;10.906;2022-08-21T07:59:59;8.30;;;7.50;;
16179;SDS011;8196;49.428;10.906;2022-08-21T08:02:27;8.10;;;7.32;;
16179;SDS011;8196;49.428;10.906;2022-08-21T08:04:59;8.27;;;7.57;;
16179;SDS011;8196;49.428;10.906;2022-08-21T08:07:27;7.85;;;7.22;;
16179;SDS011;8196;49.428;10.906;2022-08-21T08:09:54;9.20;;;8.30;;
16179;SDS011;8196;49.428;10.906;2022-08-21T08:12:21;9.30;;;8.50;;
16179;SDS011;8196;49.428;10.906;2022-08-21T08:14:48;9.40;;;8.50;;
16179;SDS011;8196;49.428;10.906;2022-08-21T08:17:16;9.10;;;8.15;;
16179;SDS011;8196;49.428;10.906;2022-08-21T08:19:46;9.93;;;9.02;;
16179;SDS011;8196;49.428;10.906;2022-08-21T08:22:16;10.30;;;9.40;;
16179;SDS011;8196;49.428;10.906;2022-08-21T08:24:45;9.23;;;8.43;;
16179;SDS011;8196;49.428;10.906;2022-08-21T08:27:14;9.80;;;8.90;;
16179;SDS011;8196;49.428;10.906;2022-08-21T08:29:41;9.90;;;9.05;;
16179;SDS011;8196;49.428;10.906;2022-08-21T08:32:12;9.38;;;8.48;;
16179;SDS011;8196;49.428;10.906;2022-08-21T08:34:39;10.38;;;9.38;;
16179;SDS011;8196;49.428;10.906;2022-08-21T08:37:07;9.82;;;9.02;;
16179;SDS011;8196;49.428;10.906;2022-08-21T08:39:34;9.90;;;8.90;;
16179;SDS011;8196;49.428;10.906;2022-08-21T08:44:48;9.40;;;8.60;;
16179;SDS011;8196;49.428;10.906;2022-08-21T08:47:17;9.25;;;8.35;;
16179;SDS011;8196;49.428;10.906;2022-08-21T08:49:49;9.63;;;8.75;;
16179;SDS011;8196;49.428;10.906;2022-08-21T08:52:20;9.15;;;8.35;;
16179;SDS011;8196;49.428;10.906;2022-08-21T08:54:51;10.18;;;9.18;;
16179;SDS011;8196;49.428;10.906;2022-08-21T08:57:22;10.30;;;9.30;;
16179;SDS011;8196;49.428;10.906;2022-08-21T08:59:51;9.52;;;8.63;;
16179;SDS011;8196;49.428;10.906;2022-08-21T09:02:19;8.30;;;7.55;;
16179;SDS011;8196;49.428;10.906;2022-08-21T09:04:47;7.97;;;7.22;;
16179;SDS011;8196;49.428;10.906;2022-08-21T09:09:48;8.90;;;8.10;;
16179;SDS011;8196;49.428;10.906;2022-08-21T09:12:25;9.13;;;8.32;;
16179;SDS011;8196;49.428;10.906;2022-08-21T09:25:28;8.02;;;7.32;;
16179;SDS011;8196;49.428;10.906;2022-08-21T09:27:57;7.80;;;7.07;;
16179;SDS011;8196;49.428;10.906;2022-08-21T09:30:27;8.57;;;7.68;;
16179;SDS011;8196;49.428;10.906;2022-08-21T09:32:54;7.82;;;7.05;;
16179;SDS011;8196;49.428;10.906;2022-08-21T09:35:23;7.53;;;6.82;;
16179;SDS011;8196;49.428;10.906;2022-08-21T09:37:52;7.15;;;6.45;;
16179;SDS011;8196;49.428;10.906;2022-08-21T09:45:33;7.63;;;6.88;;
16179;SDS011;8196;49.428;10.906;2022-08-21T09:50:52;7.10;;;6.20;;
16179;SDS011;8196;49.428;10.906;2022-08-21T09:53:21;6.68;;;6.07;;
16179;SDS011;8196;49.428;10.906;2022-08-21T09:55:52;6.63;;;6.03;;
16179;SDS011;8196;49.428;10.906;2022-08-21T09:58:40;6.70;;;6.10;;
16179;SDS011;8196;49.428;10.906;2022-08-21T10:01:12;5.85;;;5.35;;
16179;SDS011;8196;49.428;10.906;2022-08-21T10:03:39;5.68;;;5.18;;
16179;SDS011;8196;49.428;10.906;2022-08-21T10:06:07;6.05;;;5.45;;
16179;SDS011;8196;49.428;10.906;2022-08-21T10:08:37;5.60;;;5.15;;
16179;SDS011;8196;49.428;10.906;2022-08-21T10:11:06;6.20;;;5.70;;
16179;SDS011;8196;49.428;10.906;2022-08-21T10:19:15;7.47;;;5.60;;
16179;SDS011;8196;49.428;10.906;2022-08-21T10:24:21;6.05;;;5.45;;
16179;SDS011;8196;49.428;10.906;2022-08-21T10:34:58;4.75;;;4.35;;
16179;SDS011;8196;49.428;10.906;2022-08-21T10:37:31;4.43;;;4.03;;
16179;SDS011;8196;49.428;10.906;2022-08-21T10:42:46;3.17;;;2.88;;
16179;SDS011;8196;49.428;10.906;2022-08-21T10:48:04;3.45;;;3.25;;
16179;SDS011;8196;49.428;10.906;2022-08-21T10:55:31;3.97;;;3.58;;
16179;SDS011;8196;49.428;10.906;2022-08-21T10:58:05;4.78;;;4.22;;
16179;SDS011;8196;49.428;10.906;2022-08-21T11:03:33;4.00;;;3.70;;
16179;SDS011;8196;49.428;10.906;2022-08-21T11:06:03;4.10;;;3.70;;
16179;SDS011;8196;49.428;10.906;2022-08-21T11:08:33;3.92;;;3.60;;
16179;SDS011;8196;49.428;10.906;2022-08-21T11:11:04;4.30;;;4.00;;
16179;SDS011;8196;49.428;10.906;2022-08-21T11:18:50;4.60;;;3.60;;
16179;SDS011;8196;49.428;10.906;2022-08-21T11:24:09;3.40;;;3.20;;
16179;SDS011;8196;49.428;10.906;2022-08-21T11:26:43;3.00;;;2.80;;
16179;SDS011;8196;49.428;10.906;2022-08-21T11:29:21;3.10;;;2.90;;
16179;SDS011;8196;49.428;10.906;2022-08-21T11:39:47;3.65;;;3.35;;
16179;SDS011;8196;49.428;10.906;2022-08-21T11:42:23;3.50;;;3.20;;
16179;SDS011;8196;49.428;10.906;2022-08-21T11:45:03;3.47;;;3.28;;
16179;SDS011;8196;49.428;10.906;2022-08-21T11:52:39;3.22;;;3.03;;
16179;SDS011;8196;49.428;10.906;2022-08-21T11:55:12;2.90;;;2.70;;
16179;SDS011;8196;49.428;10.906;2022-08-21T12:00:13;3.40;;;3.20;;
16179;SDS011;8196;49.428;10.906;2022-08-21T12:02:45;2.97;;;2.78;;
16179;SDS011;8196;49.428;10.906;2022-08-21T12:08:05;4.93;;;3.60;;
16179;SDS011;8196;49.428;10.906;2022-08-21T12:10:34;3.10;;;2.90;;
16179;SDS011;8196;49.428;10.906;2022-08-21T12:16:10;3.70;;;3.40;;
16179;SDS011;8196;49.428;10.906;2022-08-21T12:18:38;3.78;;;3.47;;
16179;SDS011;8196;49.428;10.906;2022-08-21T12:21:23;3.88;;;3.58;;
16179;SDS011;8196;49.428;10.906;2022-08-21T12:26:47;3.60;;;3.30;;
16179;SDS011;8196;49.428;10.906;2022-08-21T12:31:53;3.85;;;3.55;;
16179;SDS011;8196;49.428;10.906;2022-08-21T12:34:21;3.88;;;3.58;;
16179;SDS011;8196;49.428;10.906;2022-08-21T12:36:54;3.83;;;3.53;;
16179;SDS011;8196;49.428;10.906;2022-08-21T12:39:24;3.85;;;3.55;;
16179;SDS011;8196;49.428;10.906;2022-08-21T12:41:55;3.72;;;3.53;;
16179;SDS011;8196;49.428;10.906;2022-08-21T12:44:31;4.05;;;3.35;;
16179;SDS011;8196;49.428;10.906;2022-08-21T12:47:03;3.50;;;3.30;;
16179;SDS011;8196;49.428;10.906;2022-08-21T12:49:35;3.78;;;3.47;;
16179;SDS011;8196;49.428;10.906;2022-08-21T12:52:07;3.80;;;3.45;;
16179;SDS011;8196;49.428;10.906;2022-08-21T12:54:38;3.80;;;3.13;;
16179;SDS011;8196;49.428;10.906;2022-08-21T12:57:07;3.25;;;3.05;;
16179;SDS011;8196;49.428;10.906;2022-08-21T12:59:37;3.55;;;3.28;;
16179;SDS011;8196;49.428;10.906;2022-08-21T13:02:11;3.72;;;3.42;;
16179;SDS011;8196;49.428;10.906;2022-08-21T13:04:40;3.60;;;3.33;;
16179;SDS011;8196;49.428;10.906;2022-08-21T13:07:09;3.88;;;3.58;;
16179;SDS011;8196;49.428;10.906;2022-08-21T13:09:41;3.45;;;3.05;;
16179;SDS011;8196;49.428;10.906;2022-08-21T13:12:10;4.10;;;3.80;;
16179;SDS011;8196;49.428;10.906;2022-08-21T13:14:39;4.20;;;3.47;;
16179;SDS011;8196;49.428;10.906;2022-08-21T13:17:11;3.30;;;3.00;;
16179;SDS011;8196;49.428;10.906;2022-08-21T13:20:05;3.33;;;3.03;;
16179;SDS011;8196;49.428;10.906;2022-08-21T13:22:39;3.25;;;2.95;;
16179;SDS011;8196;49.428;10.906;2022-08-21T13:25:15;3.15;;;2.90;;
16179;SDS011;8196;49.428;10.906;2022-08-21T13:27:56;2.95;;;2.75;;
16179;SDS011;8196;49.428;10.906;2022-08-21T13:30:24;3.47;;;3.17;;
16179;SDS011;8196;49.428;10.906;2022-08-21T13:32:54;3.47;;;3.17;;
16179;SDS011;8196;49.428;10.906;2022-08-21T13:35:25;3.80;;;3.50;;
16179;SDS011;8196;49.428;10.906;2022-08-21T13:37:52;3.65;;;3.35;;
16179;SDS011;8196;49.428;10.906;2022-08-21T13:40:26;8.02;;;3.58;;
16179;SDS011;8196;49.428;10.906;2022-08-21T13:42:53;3.42;;;3.13;;
16179;SDS011;8196;49.428;10.906;2022-08-21T13:45:23;2.90;;;2.70;;
16179;SDS011;8196;49.428;10.906;2022-08-21T13:47:50;3.45;;;3.08;;
16179;SDS011;8196;49.428;10.906;2022-08-21T13:50:19;3.20;;;3.00;;
16179;SDS011;8196;49.428;10.906;2022-08-21T13:52:49;3.40;;;3.13;;
16179;SDS011;8196;49.428;10.906;2022-08-21T13:55:17;3.72;;;3.42;;
16179;SDS011;8196;49.428;10.906;2022-08-21T13:57:44;3.60;;;3.30;;
16179;SDS011;8196;49.428;10.906;2022-08-21T14:00:13;4.25;;;2.95;;
16179;SDS011;8196;49.428;10.906;2022-08-21T14:02:42;3.90;;;3.13;;
16179;SDS011;8196;49.428;10.906;2022-08-21T14:05:14;3.15;;;2.95;;
16179;SDS011;8196;49.428;10.906;2022-08-21T14:07:42;3.15;;;2.95;;
16179;SDS011;8196;49.428;10.906;2022-08-21T14:10:13;3.33;;;3.00;;
16179;SDS011;8196;49.428;10.906;2022-08-21T14:12:42;3.25;;;3.00;;
16179;SDS011;8196;49.428;10.906;2022-08-21T14:15:12;4.45;;;2.90;;
16179;SDS011;8196;49.428;10.906;2022-08-21T14:17:39;3.00;;;2.80;;
16179;SDS011;8196;49.428;10.906;2022-08-21T14:20:11;3.17;;;2.97;;
16179;SDS011;8196;49.428;10.906;2022-08-21T14:22:40;3.55;;;3.20;;
16179;SDS011;8196;49.428;10.906;2022-08-21T14:25:14;3.35;;;3.00;;
16179;SDS011;8196;49.428;10.906;2022-08-21T14:27:43;3.40;;;3.10;;
16179;SDS011;8196;49.428;10.906;2022-08-21T14:32:39;3.88;;;2.90;;
16179;SDS011;8196;49.428;10.906;2022-08-21T14:35:11;3.25;;;2.97;;
16179;SDS011;8196;49.428;10.906;2022-08-21T14:37:42;3.40;;;3.10;;
16179;SDS011;8196;49.428;10.906;2022-08-21T14:40:10;3.13;;;2.90;;
16179;SDS011;8196;49.428;10.906;2022-08-21T14:42:40;2.90;;;2.70;;
16179;SDS011;8196;49.428;10.906;2022-08-21T14:45:12;3.75;;;3.08;;
16179;SDS011;8196;49.428;10.906;2022-08-21T14:47:41;2.97;;;2.72;;
16179;SDS011;8196;49.428;10.906;2022-08-21T14:50:09;3.10;;;2.90;;
16179;SDS011;8196;49.428;10.906;2022-08-21T14:52:36;2.78;;;2.60;;
16179;SDS011;8196;49.428;10.906;2022-08-21T14:55:04;3.00;;;2.80;;
16179;SDS011;8196;49.428;10.906;2022-08-21T14:57:31;2.55;;;2.35;;
16179;SDS011;8196;49.428;10.906;2022-08-21T14:59:58;2.67;;;2.47;;
16179;SDS011;8196;49.428;10.906;2022-08-21T15:02:27;2.88;;;2.67;;
16179;SDS011;8196;49.428;10.906;2022-08-21T15:04:54;2.92;;;2.72;;
16179;SDS011;8196;49.428;10.906;2022-08-21T15:07:21;3.08;;;2.88;;
16179;SDS011;8196;49.428;10.906;2022-08-21T15:09:49;2.85;;;2.63;;
16179;SDS011;8196;49.428;10.906;2022-08-21T15:12:16;2.65;;;2.45;;
16179;SDS011;8196;49.428;10.906;2022-08-21T15:14:43;2.70;;;2.50;;
16179;SDS011;8196;49.428;10.906;2022-08-21T15:17:10;2.78;;;2.58;;
16179;SDS011;8196;49.428;10.906;2022-08-21T15:19:38;2.75;;;2.55;;
16179;SDS011;8196;49.428;10.906;2022-08-21T15:22:05;2.30;;;2.10;;
16179;SDS011;8196;49.428;10.906;2022-08-21T15:24:43;2.80;;;2.42;;
16179;SDS011;8196;49.428;10.906;2022-08-21T15:27:10;3.03;;;2.80;;
16179;SDS011;8196;49.428;10.906;2022-08-21T15:29:41;2.53;;;2.33;;
16179;SDS011;8196;49.428;10.906;2022-08-21T15:34:43;2.90;;;2.60;;
16179;SDS011;8196;49.428;10.906;2022-08-21T15:37:10;2.67;;;2.47;;
16179;SDS011;8196;49.428;10.906;2022-08-21T15:39:37;2.70;;;2.50;;
16179;SDS011;8196;49.428;10.906;2022-08-21T15:42:06;2.50;;;2.30;;
16179;SDS011;8196;49.428;10.906;2022-08-21T15:44:38;3.13;;;2.92;;
16179;SDS011;8196;49.428;10.906;2022-08-21T15:47:08;3.05;;;2.60;;
16179;SDS011;8196;49.428;10.906;2022-08-21T15:49:36;2.50;;;2.30;;
16179;SDS011;8196;49.428;10.906;2022-08-21T15:52:03;2.30;;;2.15;;
16179;SDS011;8196;49.428;10.906;2022-08-21T15:54:31;2.55;;;2.35;;
16179;SDS011;8196;49.428;10.906;2022-08-21T15:56:58;3.00;;;2.50;;
16179;SDS011;8196;49.428;10.906;2022-08-21T15:59:25;3.33;;;3.03;;
16179;SDS011;8196;49.428;10.906;2022-08-21T16:01:53;2.60;;;2.40;;
16179;SDS011;8196;49.428;10.906;2022-08-21T16:04:22;2.42;;;2.22;;
16179;SDS011;8196;49.428;10.906;2022-08-21T16:06:49;3.95;;;2.40;;
16179;SDS011;8196;49.428;10.906;2022-08-21T16:09:21;2.22;;;2.10;;
16179;SDS011;8196;49.428;10.906;2022-08-21T16:11:48;2.85;;;2.42;;
16179;SDS011;8196;49.428;10.906;2022-08-21T16:14:15;2.58;;;2.38;;
16179;SDS011;8196;49.428;10.906;2022-08-21T16:16:43;2.00;;;1.90;;
16179;SDS011;8196;49.428;10.906;2022-08-21T16:19:10;2.65;;;2.35;;
16179;SDS011;8196;49.428;10.906;2022-08-21T16:21:37;2.75;;;2.55;;
16179;SDS011;8196;49.428;10.906;2022-08-21T16:24:05;2.60;;;2.40;;
16179;SDS011;8196;49.428;10.906;2022-08-21T16:26:32;2.92;;;2.60;;
16179;SDS011;8196;49.428;10.906;2022-08-21T16:29:00;2.58;;;2.30;;